Port Griffith, Pennsylvania
Current Conditions -  °F | °C
As of 10:54 AM on Saturday 25 Oct 2014 (Local Time) from KAVP Reporting Station
Overcast Overcast  
Wind Chill: 54°   Ceiling: 4500
Heat Index: 54°   Visibility: 10mi
Dew Point: 40°   Wind: 3mph
Humidity: 59%   Direction: NA
Pressure: 29.85"   Gusts: NA
Location:  41.2973°N, 75.7399°W
Report Text: KAVP 251454Z VRB03KT 10SM OVC045 12/04 A2985 RMK AO2 SLP106 T01220044 58014
Loading
Personal Weather Stations






























Interactive Weather Map New forecast layout! Learn more

10-Day Weather Forecast

Advertisements
Track Severe Weather on mobile